Time;durP1;ratioP1;P1;durP2;ratioP2;P2;SDS_P1;SDS_P2;PMS_P1;PMS_P2;Temp;Humidity;BMP_temperature;BMP_pressure;BME280_temperature;BME280_humidity;BME280_pressure;Samples;Min_cycle;Max_cycle;Signal;HPM_P1;HPM_P2
2022/11/08 00:01:30;;;;;;;16.80;11.82;;;;;;;15.63;61.20;101776.97;4961324;28;20545;-78
2022/11/08 00:03:55;;;;;;;17.83;11.50;;;;;;;15.63;61.12;101769.75;4989572;28;20421;-78
2022/11/08 00:14:32;;;;;;;15.60;11.45;;;;;;;15.78;60.76;101767.19;4972426;28;20494;-77
2022/11/08 00:16:58;;;;;;;18.90;11.50;;;;;;;15.70;60.89;101761.88;4971625;28;20486;-78
2022/11/08 00:19:23;;;;;;;16.53;10.63;;;;;;;15.74;60.84;101765.03;4973883;28;20388;-78
2022/11/08 00:21:49;;;;;;;16.83;11.33;;;;;;;15.73;60.75;101764.16;5002668;28;20454;-78
2022/11/08 00:24:14;;;;;;;18.10;12.10;;;;;;;15.73;60.93;101766.03;5001402;28;20425;-78
2022/11/08 00:26:40;;;;;;;15.17;11.27;;;;;;;15.76;60.79;101760.34;4971240;28;20415;-78
2022/11/08 00:29:05;;;;;;;17.47;10.80;;;;;;;15.82;60.46;101754.28;4999757;28;20431;-77
2022/11/08 00:31:31;;;;;;;15.97;10.87;;;;;;;15.84;60.33;101752.25;4973152;28;20436;-78
2022/11/08 00:33:56;;;;;;;15.07;11.13;;;;;;;15.86;60.47;101759.09;4968804;28;20809;-78
2022/11/08 00:36:22;;;;;;;17.57;11.10;;;;;;;15.89;60.29;101755.22;4974903;28;20387;-78
2022/11/08 00:38:47;;;;;;;17.63;11.53;;;;;;;15.97;60.12;101741.81;4972563;28;20395;-78
2022/11/08 00:41:13;;;;;;;16.30;11.20;;;;;;;16.10;59.77;101749.22;5005820;28;20375;-78
2022/11/08 00:43:39;;;;;;;18.13;11.77;;;;;;;16.18;59.55;101741.09;4973358;28;20391;-78
2022/11/08 00:46:05;;;;;;;16.27;11.27;;;;;;;16.20;59.35;101744.41;5005405;28;20857;-78
2022/11/08 00:48:30;;;;;;;17.70;11.57;;;;;;;16.20;59.33;101747.09;5006218;28;20466;-78
2022/11/08 00:51:01;;;;;;;17.63;11.63;;;;;;;16.19;59.67;101750.78;4971903;28;20831;-78
2022/11/08 00:53:26;;;;;;;18.17;11.87;;;;;;;16.21;59.76;101747.94;5005937;28;20383;-77
2022/11/08 00:56:03;;;;;;;16.80;11.70;;;;;;;16.22;59.65;101744.22;4971023;28;20402;-77
2022/11/08 00:58:29;;;;;;;14.85;11.50;;;;;;;16.18;59.64;101745.63;4967380;28;20478;-78
2022/11/08 01:00:55;;;;;;;15.90;11.40;;;;;;;16.23;59.45;101746.72;4969788;28;20385;-78
2022/11/08 01:03:22;;;;;;;15.80;11.63;;;;;;;16.23;59.40;101749.41;4967540;28;20383;-78
2022/11/08 01:05:50;;;;;;;18.08;11.45;;;;;;;16.17;59.75;101742.13;4968133;28;20390;-78
2022/11/08 01:08:17;;;;;;;15.80;11.27;;;;;;;16.13;59.89;101742.66;4971420;28;20443;-78
2022/11/08 01:10:45;;;;;;;14.30;12.00;;;;;;;16.09;59.85;101744.84;4974888;28;20436;-78
2022/11/08 01:13:11;;;;;;;17.25;12.43;;;;;;;16.11;59.70;101745.50;4969821;28;20383;-79
2022/11/08 01:15:39;;;;;;;18.40;12.17;;;;;;;16.10;59.84;101749.22;4971809;28;20457;-78
2022/11/08 01:18:06;;;;;;;17.73;13.15;;;;;;;16.10;59.91;101746.53;4971850;28;20388;-78
2022/11/08 01:20:32;;;;;;;19.67;13.50;;;;;;;16.05;59.99;101749.75;4974534;28;20388;-78
2022/11/08 01:22:58;;;;;;;18.05;13.45;;;;;;;16.02;60.04;101749.28;4972153;28;20502;-78
2022/11/08 01:25:24;;;;;;;21.75;14.20;;;;;;;16.07;59.90;101744.22;4972188;28;20793;-78
2022/11/08 01:27:52;;;;;;;19.27;13.63;;;;;;;16.08;59.94;101745.03;4973649;28;20402;-78
2022/11/08 01:30:18;;;;;;;18.33;13.23;;;;;;;16.05;59.95;101755.09;4977731;28;20437;-79
2022/11/08 01:32:43;;;;;;;20.03;13.60;;;;;;;16.04;59.86;101747.25;5004715;28;20865;-79
2022/11/08 01:35:09;;;;;;;19.03;13.33;;;;;;;16.02;59.92;101749.28;4973016;28;20403;-78
2022/11/08 01:37:34;;;;;;;20.15;13.27;;;;;;;16.08;59.80;101750.38;4975930;28;20402;-78
2022/11/08 01:40:00;;;;;;;19.33;12.77;;;;;;;16.05;59.66;101748.91;4975316;28;20776;-78
2022/11/08 01:42:30;;;;;;;18.57;13.23;;;;;;;16.08;59.81;101753.06;4962928;28;20379;-78
2022/11/08 01:45:06;;;;;;;17.73;12.80;;;;;;;16.13;59.60;101738.13;4974393;28;20406;-78
2022/11/08 01:47:31;;;;;;;16.92;12.45;;;;;;;16.17;59.62;101741.28;4974455;28;20734;-78
2022/11/08 01:50:04;;;;;;;20.17;13.20;;;;;;;16.16;59.65;101742.31;4996907;28;20415;-78
2022/11/08 01:52:38;;;;;;;17.05;12.75;;;;;;;16.16;59.78;101743.13;4997831;28;20387;-78
2022/11/08 01:55:19;;;;;;;18.98;12.77;;;;;;;16.12;59.65;101733.81;4969058;28;20467;-78
2022/11/08 01:57:50;;;;;;;18.20;12.93;;;;;;;16.14;59.71;101733.63;4970909;28;20474;-79
2022/11/08 02:00:16;;;;;;;17.73;13.57;;;;;;;16.10;59.61;101729.63;5002659;28;20524;-78
2022/11/08 02:02:44;;;;;;;17.90;13.33;;;;;;;16.13;59.55;101730.09;4972588;28;20391;-78
2022/11/08 02:05:24;;;;;;;17.45;12.73;;;;;;;16.17;59.65;101723.41;4971039;28;20435;-78
2022/11/08 02:08:01;;;;;;;17.00;12.27;;;;;;;16.21;59.41;101732.72;4971536;28;20403;-78
2022/11/08 02:10:32;;;;;;;16.55;11.90;;;;;;;16.22;59.40;101714.81;4982000;28;20929;-78
2022/11/08 02:12:58;;;;;;;19.33;13.13;;;;;;;16.25;59.41;101725.97;4967354;28;20391;-77
2022/11/08 02:15:25;;;;;;;16.50;12.63;;;;;;;16.26;59.30;101724.16;4971618;28;20384;-77
2022/11/08 02:17:52;;;;;;;15.43;12.43;;;;;;;16.28;58.99;101721.25;4973314;28;20387;-78
2022/11/08 02:20:18;;;;;;;17.52;13.02;;;;;;;16.28;59.34;101714.09;4973340;28;20394;-78
2022/11/08 02:22:55;;;;;;;17.58;12.57;;;;;;;16.28;59.21;101714.09;4982964;28;20841;-78
2022/11/08 02:25:21;;;;;;;19.20;12.82;;;;;;;16.23;59.46;101705.78;4976355;28;20395;-79
2022/11/08 02:27:46;;;;;;;18.25;14.07;;;;;;;16.27;59.45;101714.28;4974320;28;20406;-80
2022/11/08 02:30:11;;;;;;;19.93;15.17;;;;;;;16.27;59.48;101712.41;4974749;28;20892;-78
2022/11/08 02:32:39;;;;;;;23.75;16.88;;;;;;;16.26;59.48;101713.44;4974597;28;20387;-78
2022/11/08 02:35:08;;;;;;;26.65;15.60;;;;;;;16.30;59.15;101714.75;4970999;28;20389;-78
2022/11/08 02:37:34;;;;;;;21.17;14.13;;;;;;;16.23;59.43;101713.81;4969201;28;20817;-79
2022/11/08 02:40:00;;;;;;;19.67;14.00;;;;;;;16.25;59.54;101715.28;4974573;28;20391;-79
2022/11/08 02:42:25;;;;;;;22.08;15.20;;;;;;;16.26;59.51;101710.78;4969331;28;20403;-79
2022/11/08 02:44:51;;;;;;;30.83;22.17;;;;;;;16.27;59.37;101712.41;4974384;28;20414;-78
2022/11/08 02:47:16;;;;;;;23.38;16.60;;;;;;;16.25;59.45;101715.28;4969662;28;20380;-79
2022/11/08 02:49:42;;;;;;;23.07;16.13;;;;;;;16.26;59.43;101716.13;4971177;28;20908;-78
2022/11/08 02:52:07;;;;;;;18.75;14.15;;;;;;;16.19;59.63;101718.69;4972955;28;20412;-78
2022/11/08 02:54:33;;;;;;;18.93;13.17;;;;;;;16.17;59.35;101717.19;4975005;28;20454;-79
2022/11/08 02:56:58;;;;;;;18.63;13.60;;;;;;;16.18;59.17;101717.00;4978077;28;20375;-79
2022/11/08 02:59:24;;;;;;;17.40;12.93;;;;;;;16.18;59.08;101708.16;4974090;28;20744;-80
2022/11/08 03:01:49;;;;;;;19.02;12.77;;;;;;;16.14;59.14;101717.56;5005326;28;20463;-80
2022/11/08 03:04:15;;;;;;;17.03;12.93;;;;;;;15.90;59.65;101726.63;4985724;28;20375;-79
2022/11/08 03:06:40;;;;;;;19.70;13.90;;;;;;;15.81;59.93;101724.06;4976683;28;20744;-78
2022/11/08 03:09:06;;;;;;;19.53;12.47;;;;;;;15.82;59.64;101727.53;4976477;28;20414;-79
2022/11/08 03:11:31;;;;;;;19.05;13.32;;;;;;;15.74;59.92;101724.94;4974562;28;20387;-78
2022/11/08 03:13:57;;;;;;;22.00;17.30;;;;;;;15.79;59.65;101733.25;4973812;28;20380;-78
2022/11/08 03:16:22;;;;;;;19.17;14.77;;;;;;;15.68;59.85;101729.97;4977893;28;20422;-79
2022/11/08 03:18:48;;;;;;;20.92;13.25;;;;;;;15.57;60.12;101734.88;4977985;28;20407;-79
2022/11/08 03:21:14;;;;;;;22.00;13.90;;;;;;;15.38;60.72;101729.00;4972240;28;20471;-79
2022/11/08 03:23:39;;;;;;;18.08;13.27;;;;;;;15.36;60.91;101738.19;4973942;28;20407;-79
2022/11/08 03:26:05;;;;;;;18.63;13.27;;;;;;;15.26;61.26;101736.56;4969032;28;20384;-79
2022/11/08 03:28:31;;;;;;;18.48;13.35;;;;;;;15.13;61.61;101743.53;4976837;28;20400;-79
2022/11/08 03:30:57;;;;;;;18.77;13.82;;;;;;;15.17;61.43;101747.50;4970726;28;20919;-79
2022/11/08 03:33:22;;;;;;;17.98;13.25;;;;;;;15.20;61.40;101753.31;4987460;28;20876;-79
2022/11/08 03:35:48;;;;;;;18.47;13.40;;;;;;;15.00;61.88;101744.91;4975296;28;20741;-78
2022/11/08 03:38:14;;;;;;;17.95;12.63;;;;;;;15.02;62.12;101747.41;4973977;28;20868;-78
2022/11/08 03:40:40;;;;;;;17.52;12.80;;;;;;;14.98;62.08;101754.94;4973201;28;20387;-78
2022/11/08 03:43:06;;;;;;;16.40;12.10;;;;;;;14.93;62.39;101745.75;4967134;28;20383;-78
2022/11/08 03:45:31;;;;;;;18.92;12.02;;;;;;;14.93;62.40;101753.75;5002751;28;20419;-78
2022/11/08 03:47:57;;;;;;;21.67;12.70;;;;;;;14.79;62.67;101748.16;4971980;28;20885;-78
2022/11/08 03:50:23;;;;;;;20.60;13.05;;;;;;;14.78;62.75;101743.81;4972114;28;20412;-78
2022/11/08 03:52:50;;;;;;;19.50;13.33;;;;;;;14.75;63.06;101744.19;5000964;28;20405;-78
2022/11/08 03:55:17;;;;;;;18.70;11.60;;;;;;;14.74;62.62;101741.66;4971323;28;20386;-78
2022/11/08 03:57:45;;;;;;;20.53;11.83;;;;;;;14.75;62.83;101746.00;4968488;28;20392;-79
2022/11/08 04:00:13;;;;;;;17.48;11.23;;;;;;;14.72;62.64;101752.50;4976000;28;20856;-78
2022/11/08 04:02:39;;;;;;;14.70;11.13;;;;;;;14.76;62.35;101747.66;4998488;28;20403;-78
2022/11/08 04:05:06;;;;;;;17.27;10.63;;;;;;;14.64;62.54;101741.84;4950665;28;20959;-78
2022/11/08 04:07:31;;;;;;;15.45;10.48;;;;;;;14.63;62.72;101749.03;4951440;28;20468;-77
2022/11/08 04:09:57;;;;;;;15.20;10.40;;;;;;;14.57;62.87;101746.19;4958219;28;20502;-82
2022/11/08 04:15:16;;;;;;;15.50;10.90;;;;;;;14.51;63.10;101755.69;4976259;28;20492;-78
2022/11/08 04:23:11;;;;;;;16.65;10.48;;;;;;;14.59;62.81;101742.38;4977824;28;20486;-77
2022/11/08 04:25:37;;;;;;;16.58;10.30;;;;;;;14.53;62.95;101743.88;4974418;28;20796;-77
2022/11/08 04:28:02;;;;;;;15.63;10.55;;;;;;;14.50;62.93;101741.53;4976733;28;20463;-77
2022/11/08 04:30:28;;;;;;;14.97;10.73;;;;;;;14.51;62.86;101742.34;4977839;28;20754;-78
2022/11/08 04:32:53;;;;;;;14.03;10.43;;;;;;;14.48;62.79;101743.53;4977897;28;20445;-77
2022/11/08 04:35:19;;;;;;;16.33;10.70;;;;;;;14.48;62.71;101735.53;4977528;28;20733;-78
2022/11/08 04:37:44;;;;;;;16.30;10.80;;;;;;;14.49;63.01;101737.19;4977016;28;20460;-77
2022/11/08 04:40:12;;;;;;;17.97;11.77;;;;;;;14.70;62.16;101735.84;4971491;28;20886;-77
2022/11/08 04:42:37;;;;;;;16.23;11.57;;;;;;;14.79;61.76;101734.81;4967788;28;20403;-78
2022/11/08 04:45:03;;;;;;;15.33;11.90;;;;;;;14.79;61.68;101723.31;4966757;28;20852;-78
2022/11/08 04:47:28;;;;;;;16.13;11.55;;;;;;;14.86;61.34;101738.44;4977734;28;20398;-79
2022/11/08 04:49:54;;;;;;;16.83;12.70;;;;;;;14.94;60.78;101734.09;5007604;28;20419;-79
2022/11/08 04:52:20;;;;;;;17.90;14.40;;;;;;;14.93;60.79;101738.59;4978484;28;20414;-78
2022/11/08 04:54:48;;;;;;;24.90;22.50;;;;;;;14.96;60.53;101746.25;4976636;28;20387;-78
2022/11/08 04:57:15;;;;;;;17.30;14.93;;;;;;;14.98;60.35;101741.59;4972224;28;20424;-79
2022/11/08 04:59:40;;;;;;;16.80;12.13;;;;;;;14.95;60.16;101749.09;5006880;28;20426;-78
2022/11/08 05:02:06;;;;;;;16.20;11.68;;;;;;;14.82;60.83;101753.16;4974600;28;20430;-79
2022/11/08 05:04:31;;;;;;;16.67;12.63;;;;;;;14.69;61.04;101752.84;4976253;28;20492;-78
2022/11/08 05:06:57;;;;;;;17.90;12.57;;;;;;;14.70;61.10;101755.34;4981262;28;20394;-78
2022/11/08 05:09:22;;;;;;;18.93;13.53;;;;;;;14.69;61.08;101745.69;4977486;28;20775;-78
2022/11/08 05:11:47;;;;;;;19.00;13.40;;;;;;;14.83;61.00;101762.81;4978227;28;20402;-79
2022/11/08 05:14:13;;;;;;;19.70;13.23;;;;;;;14.70;60.82;101757.19;4965621;28;20870;-78
2022/11/08 05:16:38;;;;;;;16.80;12.25;;;;;;;14.64;61.40;101757.88;4964546;28;20387;-78
2022/11/08 05:19:04;;;;;;;15.67;12.10;;;;;;;14.68;61.30;101762.69;5006298;28;20423;-78
2022/11/08 05:24:15;;;;;;;18.83;12.98;;;;;;;14.74;61.21;101763.03;4974539;28;20506;-78
2022/11/08 05:26:44;;;;;;;17.57;12.97;;;;;;;14.74;60.94;101758.50;4936970;28;20420;-80
2022/11/08 05:29:10;;;;;;;17.08;12.73;;;;;;;14.74;60.67;101776.38;4983027;28;20426;-79
2022/11/08 05:31:36;;;;;;;17.45;12.38;;;;;;;14.64;60.76;101776.53;4963232;28;20419;-78
2022/11/08 05:34:02;;;;;;;18.27;12.73;;;;;;;14.64;60.99;101776.53;4962519;28;20481;-78
2022/11/08 05:36:28;;;;;;;15.50;12.73;;;;;;;14.66;60.76;101783.41;4969469;28;20411;-79
2022/11/08 05:38:54;;;;;;;18.52;12.52;;;;;;;14.61;60.75;101780.41;4973298;28;20876;-78
2022/11/08 05:41:22;;;;;;;14.88;12.07;;;;;;;14.60;60.63;101783.22;4974521;28;20941;-79
2022/11/08 05:43:49;;;;;;;17.75;12.32;;;;;;;14.53;60.79;101786.56;4976044;28;20736;-78
2022/11/08 05:46:16;;;;;;;15.35;12.02;;;;;;;14.54;60.78;101788.22;4999383;28;20390;-79
2022/11/08 05:48:43;;;;;;;17.60;12.40;;;;;;;14.50;60.99;101780.72;4971941;28;20767;-81
2022/11/08 05:51:14;;;;;;;16.98;11.98;;;;;;;14.47;61.00;101794.41;4997409;28;20448;-78
2022/11/08 05:53:40;;;;;;;17.27;12.48;;;;;;;14.44;61.22;101787.59;4975819;28;20450;-79
2022/11/08 05:56:07;;;;;;;15.85;11.55;;;;;;;14.49;60.99;101787.06;4975935;28;20372;-80
2022/11/08 05:58:33;;;;;;;21.23;11.80;;;;;;;14.63;60.82;101788.25;4977534;28;20391;-78
2022/11/08 06:01:08;;;;;;;15.93;11.50;;;;;;;14.73;60.56;101794.22;4979233;28;20382;-78
2022/11/08 06:03:34;;;;;;;15.25;11.80;;;;;;;14.71;60.42;101790.88;4971173;28;22046;-78
2022/11/08 06:06:02;;;;;;;16.98;12.00;;;;;;;14.74;60.39;101787.03;4974110;28;20454;-78
2022/11/08 06:08:27;;;;;;;16.13;11.90;;;;;;;14.76;60.10;101783.19;4975255;28;20379;-78
2022/11/08 06:10:53;;;;;;;15.63;12.00;;;;;;;14.76;60.15;101790.38;4974086;28;21068;-78
2022/11/08 06:13:18;;;;;;;17.00;12.32;;;;;;;14.85;60.01;101789.34;4978814;28;20379;-78
2022/11/08 06:15:44;;;;;;;16.50;12.60;;;;;;;14.96;59.69;101796.16;4979239;28;20962;-77
2022/11/08 06:18:09;;;;;;;17.05;12.15;;;;;;;15.05;59.42;101792.44;5011701;28;20491;-78
2022/11/08 06:20:35;;;;;;;17.80;12.73;;;;;;;15.04;59.59;101798.81;4980062;28;20706;-80
2022/11/08 06:23:01;;;;;;;17.70;12.00;;;;;;;15.06;59.28;101791.44;4977530;28;20943;-78
2022/11/08 06:25:26;;;;;;;16.17;12.30;;;;;;;15.05;59.22;101800.44;4974708;28;20388;-78
2022/11/08 06:27:52;;;;;;;18.30;12.93;;;;;;;15.00;59.52;101802.78;4980886;28;20385;-79
2022/11/08 06:30:17;;;;;;;16.60;12.77;;;;;;;14.93;59.60;101802.69;4964254;28;20440;-79
2022/11/08 06:32:43;;;;;;;17.07;12.77;;;;;;;14.84;59.76;101812.53;4988803;28;20729;-78
2022/11/08 06:35:08;;;;;;;18.30;13.57;;;;;;;14.70;59.83;101803.38;4969489;28;20392;-79
2022/11/08 06:37:34;;;;;;;20.13;14.38;;;;;;;14.70;59.79;101806.06;4972554;28;20394;-78
2022/11/08 06:39:59;;;;;;;20.90;16.23;;;;;;;14.82;59.67;101819.88;4972209;28;20407;-78
2022/11/08 06:42:25;;;;;;;26.15;20.27;;;;;;;14.83;59.45;101816.19;4967380;28;20400;-79
2022/11/08 06:44:51;;;;;;;22.60;18.40;;;;;;;14.92;59.28;101817.00;5009752;28;20436;-78
2022/11/08 06:47:17;;;;;;;21.27;17.10;;;;;;;14.88;59.29;101816.53;5008290;28;20395;-78
2022/11/08 06:49:42;;;;;;;20.63;16.20;;;;;;;14.91;59.21;101823.38;4976198;28;20409;-79
2022/11/08 06:52:08;;;;;;;17.92;13.98;;;;;;;14.88;59.24;101821.88;4965490;28;20385;-79
2022/11/08 06:54:33;;;;;;;19.20;13.70;;;;;;;14.91;59.37;101824.19;4976118;28;20410;-80
2022/11/08 06:57:00;;;;;;;18.80;13.87;;;;;;;14.94;59.00;101820.34;5008603;28;20488;-81
2022/11/08 06:59:26;;;;;;;20.67;14.55;;;;;;;15.03;59.03;101821.97;4980641;28;20434;-79
2022/11/08 07:01:52;;;;;;;18.27;13.32;;;;;;;15.01;59.26;101828.50;5008758;28;20871;-78
2022/11/08 07:04:18;;;;;;;17.65;13.55;;;;;;;14.95;59.07;101819.34;5000420;28;20394;-78
2022/11/08 07:06:43;;;;;;;18.25;12.48;;;;;;;14.97;59.24;101827.19;5015872;28;20380;-78
2022/11/08 07:09:09;;;;;;;17.77;12.73;;;;;;;14.81;59.81;101826.22;5034092;28;20820;-79
2022/11/08 07:11:34;;;;;;;18.00;12.27;;;;;;;14.88;59.63;101823.72;5013294;28;20411;-79
2022/11/08 07:14:00;;;;;;;20.35;13.38;;;;;;;14.85;59.93;101821.38;5011917;28;20408;-78
2022/11/08 07:16:25;;;;;;;17.93;12.90;;;;;;;14.83;60.28;101820.72;5008277;28;20399;-78
2022/11/08 07:18:51;;;;;;;18.25;12.32;;;;;;;14.82;59.83;101819.88;5005433;28;20392;-79
2022/11/08 07:21:16;;;;;;;17.47;12.27;;;;;;;14.87;59.70;101825.56;5007782;28;20393;-79
2022/11/08 07:23:42;;;;;;;16.83;11.75;;;;;;;14.93;59.71;101820.50;5017412;28;20416;-79
2022/11/08 07:26:09;;;;;;;18.17;12.33;;;;;;;15.10;59.26;101817.63;5025425;28;20388;-79
2022/11/08 07:28:35;;;;;;;17.17;12.88;;;;;;;15.18;59.06;101816.78;5007840;28;20426;-80
2022/11/08 07:31:03;;;;;;;20.17;12.40;;;;;;;15.26;59.09;101816.72;5023139;28;20967;-79
2022/11/08 07:33:29;;;;;;;17.37;12.83;;;;;;;15.34;58.93;101815.00;4979343;28;20398;-78
2022/11/08 07:35:55;;;;;;;15.30;12.13;;;;;;;15.44;58.74;101816.47;5007992;28;20489;-77
2022/11/08 07:38:22;;;;;;;16.85;12.20;;;;;;;15.52;58.49;101818.28;4978124;28;20395;-77
2022/11/08 07:40:47;;;;;;;17.35;12.32;;;;;;;15.56;58.38;101816.91;4977164;28;20386;-80
2022/11/08 07:43:13;;;;;;;16.65;12.27;;;;;;;15.51;58.37;101813.94;5005799;28;20389;-79
2022/11/08 07:45:40;;;;;;;18.13;13.70;;;;;;;15.58;58.71;101822.91;4982749;28;20388;-79
2022/11/08 07:48:08;;;;;;;20.13;13.63;;;;;;;15.66;58.34;101820.19;4976726;28;20460;-79
2022/11/08 07:50:34;;;;;;;44.42;29.30;;;;;;;15.74;58.41;101822.03;4980365;28;20451;-79
2022/11/08 07:52:59;;;;;;;28.33;19.87;;;;;;;15.78;58.41;101819.81;5010089;28;20389;-79
2022/11/08 07:55:26;;;;;;;30.83;22.33;;;;;;;15.83;58.17;101820.13;4969347;28;20387;-80
2022/11/08 07:57:55;;;;;;;26.23;19.40;;;;;;;15.77;58.31;101816.31;4982822;28;20379;-77
2022/11/08 08:00:21;;;;;;;18.85;13.35;;;;;;;15.66;58.48;101812.19;4979953;28;20380;-80
2022/11/08 08:02:46;;;;;;;18.73;13.48;;;;;;;15.56;58.90;101821.44;4980997;28;20388;-80
2022/11/08 08:05:12;;;;;;;18.20;13.20;;;;;;;15.60;58.43;101823.56;4980208;28;20395;-80
2022/11/08 08:07:38;;;;;;;17.77;13.30;;;;;;;15.75;58.39;101812.16;4981496;28;20379;-78
2022/11/08 08:10:04;;;;;;;16.50;12.27;;;;;;;15.76;57.95;101805.81;4971924;28;20517;-78
2022/11/08 08:12:29;;;;;;;21.45;15.27;;;;;;;15.85;57.91;101799.38;4971980;28;20474;-81
2022/11/08 08:14:55;;;;;;;17.20;13.23;;;;;;;15.86;57.50;101799.22;4981120;28;20423;-80
2022/11/08 08:17:20;;;;;;;24.17;18.80;;;;;;;16.00;57.66;101802.09;5016767;28;20400;-79
2022/11/08 08:19:46;;;;;;;19.00;14.07;;;;;;;16.08;56.95;101801.19;4984703;28;20418;-78
2022/11/08 08:22:12;;;;;;;22.07;16.97;;;;;;;16.09;57.16;101800.22;4987169;28;20384;-80
2022/11/08 08:24:38;;;;;;;24.38;17.98;;;;;;;16.02;57.03;101800.91;4999070;28;20478;-78
2022/11/08 08:27:03;;;;;;;23.52;17.02;;;;;;;16.19;56.81;101800.81;4971375;28;20393;-78
2022/11/08 08:29:29;;;;;;;15.30;11.83;;;;;;;16.09;56.08;101794.84;5014340;28;20408;-79
2022/11/08 08:31:54;;;;;;;21.05;13.35;;;;;;;16.12;55.96;101799.84;5015582;28;20391;-79
2022/11/08 08:34:22;;;;;;;19.20;14.83;;;;;;;16.17;56.33;101800.13;4978540;28;20966;-78
2022/11/08 08:36:47;;;;;;;22.87;17.50;;;;;;;16.34;56.01;101798.97;4981625;28;20419;-79
2022/11/08 08:39:13;;;;;;;18.63;14.70;;;;;;;16.38;55.92;101794.91;4986963;28;20391;-78
2022/11/08 08:41:39;;;;;;;20.00;15.07;;;;;;;16.50;56.15;101795.31;4982545;28;20384;-79
2022/11/08 08:44:04;;;;;;;20.00;15.23;;;;;;;16.60;56.00;101800.38;4961859;28;20399;-79
2022/11/08 08:46:30;;;;;;;20.38;14.80;;;;;;;16.70;55.93;101795.59;4976681;28;20470;-78
2022/11/08 08:48:55;;;;;;;17.67;13.40;;;;;;;16.73;55.41;101795.25;4982572;28;20391;-78
2022/11/08 08:51:21;;;;;;;27.07;20.07;;;;;;;16.61;55.66;101786.00;4982300;28;20403;-79
2022/11/08 08:53:46;;;;;;;29.40;21.17;;;;;;;16.72;55.59;101796.25;4976484;28;20398;-79
2022/11/08 08:56:12;;;;;;;37.47;29.53;;;;;;;16.82;55.65;101798.66;4983030;28;20398;-79
2022/11/08 08:58:37;;;;;;;17.20;13.10;;;;;;;16.87;55.35;101792.78;4981788;28;20394;-81
2022/11/08 09:01:07;;;;;;;15.57;11.73;;;;;;;16.80;54.64;101788.13;4982460;28;20387;-78
2022/11/08 09:03:33;;;;;;;16.73;11.82;;;;;;;16.90;54.41;101787.06;4984135;28;20466;-80
2022/11/08 09:06:00;;;;;;;17.27;13.97;;;;;;;17.00;54.49;101788.44;4982659;28;20391;-79
2022/11/08 09:08:26;;;;;;;13.52;10.27;;;;;;;16.89;53.58;101782.69;5008041;28;20393;-79
2022/11/08 09:10:57;;;;;;;11.90;10.20;;;;;;;16.85;53.67;101789.44;5010950;28;20438;-80
2022/11/08 09:13:25;;;;;;;15.10;11.25;;;;;;;16.96;53.55;101786.28;4979290;28;20421;-79
2022/11/08 09:15:51;;;;;;;13.65;11.35;;;;;;;17.09;53.60;101789.16;4989678;28;20399;-79
2022/11/08 09:18:17;;;;;;;13.65;10.98;;;;;;;17.15;53.89;101782.22;4978385;28;20409;-79
2022/11/08 09:20:43;;;;;;;14.32;11.95;;;;;;;17.24;53.79;101785.63;4979358;28;20380;-80
2022/11/08 09:23:13;;;;;;;14.70;11.70;;;;;;;17.35;53.63;101787.81;4981034;28;20415;-80
2022/11/08 09:25:39;;;;;;;14.68;11.32;;;;;;;17.28;53.64;101785.06;4979592;28;20431;-78
2022/11/08 09:28:05;;;;;;;15.23;11.40;;;;;;;17.37;53.43;101785.78;4983574;28;20387;-79
2022/11/08 09:30:31;;;;;;;12.88;9.50;;;;;;;17.28;53.09;101784.22;4984234;28;20403;-79
2022/11/08 09:32:56;;;;;;;12.15;10.05;;;;;;;17.24;53.12;101782.94;4982792;28;20442;-79
2022/11/08 09:35:22;;;;;;;12.40;9.50;;;;;;;17.13;52.67;101784.25;4984931;28;20380;-80
2022/11/08 09:37:48;;;;;;;12.73;9.80;;;;;;;17.13;52.79;101781.59;4983524;28;20382;-80
2022/11/08 09:40:44;;;;;;;13.60;10.90;;;;;;;17.29;52.81;101780.53;4969074;28;20394;-79
2022/11/08 09:43:28;;;;;;;14.10;11.30;;;;;;;17.55;53.01;101780.81;4949637;28;20394;-80
2022/11/08 09:45:56;;;;;;;14.10;10.87;;;;;;;17.66;52.59;101779.47;4999538;28;20394;-79
2022/11/08 09:48:30;;;;;;;15.50;11.80;;;;;;;17.70;52.68;101772.75;4981802;28;20472;-78
2022/11/08 09:51:00;;;;;;;14.07;10.95;;;;;;;17.77;51.78;101764.72;4975074;28;20447;-79
2022/11/08 09:53:42;;;;;;;15.50;11.43;;;;;;;17.77;51.86;101762.06;4996606;28;20392;-78
2022/11/08 09:56:23;;;;;;;20.13;15.32;;;;;;;17.85;51.78;101761.13;4982810;28;20438;-78
2022/11/08 09:59:12;;;;;;;15.77;12.85;;;;;;;17.94;52.38;101758.13;4982634;28;20387;-78
2022/11/08 10:01:38;;;;;;;15.48;11.48;;;;;;;18.09;51.70;101763.41;4984225;28;20393;-79
2022/11/08 10:04:31;;;;;;;13.90;10.93;;;;;;;18.15;52.24;101756.44;4983327;28;20384;-78
2022/11/08 10:07:02;;;;;;;11.75;10.02;;;;;;;18.26;52.54;101752.41;4981443;28;20400;-79
2022/11/08 10:09:52;;;;;;;14.52;10.48;;;;;;;18.30;52.14;101746.44;4982801;28;20888;-78
2022/11/08 10:12:24;;;;;;;12.85;10.40;;;;;;;18.31;51.02;101740.06;5015240;28;20391;-79
2022/11/08 10:15:26;;;;;;;16.98;11.48;;;;;;;18.26;50.78;101745.16;4987930;28;20394;-79
2022/11/08 10:18:06;;;;;;;21.00;15.63;;;;;;;18.42;50.90;101745.88;4974148;28;20375;-81
2022/11/08 10:20:41;;;;;;;14.80;11.57;;;;;;;18.48;52.09;101742.41;5018402;28;20379;-80
2022/11/08 10:23:24;;;;;;;17.02;10.98;;;;;;;18.55;50.78;101743.28;4985079;28;20419;-80
2022/11/08 10:25:58;;;;;;;13.68;11.15;;;;;;;18.55;50.70;101737.91;4983940;28;20447;-80
2022/11/08 10:28:30;;;;;;;11.70;9.70;;;;;;;18.65;51.06;101737.53;4985158;28;20412;-80
2022/11/08 10:30:55;;;;;;;13.73;10.87;;;;;;;18.71;50.80;101739.47;4986700;28;20411;-79
2022/11/08 10:33:44;;;;;;;12.97;9.70;;;;;;;18.75;50.38;101729.97;4986647;28;20491;-80
2022/11/08 10:36:20;;;;;;;9.73;7.93;;;;;;;18.74;48.38;101736.34;4985680;28;20395;-79
2022/11/08 10:38:57;;;;;;;13.63;9.98;;;;;;;18.67;48.12;101728.28;4985430;28;20398;-80
2022/11/08 10:41:46;;;;;;;9.07;7.35;;;;;;;18.76;48.01;101722.72;4986942;28;20380;-78
2022/11/08 10:44:20;;;;;;;12.00;9.07;;;;;;;18.89;48.41;101729.03;4989910;28;20438;-80
2022/11/08 10:46:56;;;;;;;12.43;10.63;;;;;;;18.95;48.12;101721.19;4991636;28;20371;-82
2022/11/08 10:49:34;;;;;;;9.48;7.22;;;;;;;18.97;47.66;101724.50;4990879;28;20442;-79
2022/11/08 10:52:10;;;;;;;8.70;7.37;;;;;;;19.00;48.39;101724.13;5002739;28;20398;-78
2022/11/08 10:54:55;;;;;;;9.93;7.57;;;;;;;19.02;47.40;101706.75;4989568;28;20464;-80
2022/11/08 10:57:41;;;;;;;8.83;6.93;;;;;;;18.97;47.29;101716.44;4973959;28;20471;-80
2022/11/08 11:00:19;;;;;;;7.03;6.07;;;;;;;18.97;46.54;101705.69;4986030;28;20387;-80
2022/11/08 11:02:48;;;;;;;7.23;6.43;;;;;;;19.10;47.08;101711.09;5008958;28;20383;-79
2022/11/08 11:05:20;;;;;;;7.57;5.90;;;;;;;19.05;45.74;101708.19;4990755;28;20416;-79
2022/11/08 11:07:56;;;;;;;9.00;6.88;;;;;;;18.98;46.11;101704.66;5023622;28;20888;-81
2022/11/08 11:10:29;;;;;;;8.95;7.10;;;;;;;19.20;46.57;101708.03;4990025;28;20498;-80
2022/11/08 11:13:09;;;;;;;10.65;7.80;;;;;;;19.17;47.57;101695.81;4988831;28;20400;-81
2022/11/08 11:16:04;;;;;;;7.93;6.53;;;;;;;19.20;46.10;101702.69;5008284;28;20488;-79
2022/11/08 11:18:35;;;;;;;8.50;6.57;;;;;;;19.21;46.63;101698.94;5008567;28;20400;-80
2022/11/08 11:21:12;;;;;;;7.40;6.28;;;;;;;19.28;46.09;101686.34;5009426;28;20386;-80
2022/11/08 11:23:48;;;;;;;7.43;5.97;;;;;;;19.26;45.66;101686.53;4996017;28;20406;-80
2022/11/08 11:26:33;;;;;;;7.03;5.70;;;;;;;19.29;45.23;101678.06;4996955;28;20397;-80
2022/11/08 11:29:07;;;;;;;9.20;5.75;;;;;;;19.34;44.63;101688.22;5013455;28;20382;-81
2022/11/08 11:31:41;;;;;;;6.07;5.28;;;;;;;19.33;44.63;101681.19;4992090;28;20417;-80
2022/11/08 11:34:16;;;;;;;6.38;5.13;;;;;;;19.29;43.96;101679.94;5009170;28;20407;-79
2022/11/08 11:36:56;;;;;;;5.88;4.95;;;;;;;19.23;43.67;101670.00;5002586;28;20460;-79